Time;durP1;ratioP1;P1;durP2;ratioP2;P2;SDS_P1;SDS_P2;PMS_P1;PMS_P2;Temp;Humidity;BMP_temperature;BMP_pressure;BME280_temperature;BME280_humidity;BME280_pressure;Samples;Min_cycle;Max_cycle;Signal;HPM_P1;HPM_P2
2023/04/28 00:01:43;;;;;;;8.13;7.93;;;19.60;52.40;;;;;;5093412;28;20473;-64
2023/04/28 00:04:10;;;;;;;8.30;8.00;;;19.50;52.30;;;;;;5093313;28;20446;-64
2023/04/28 00:06:37;;;;;;;7.57;7.40;;;19.50;52.40;;;;;;5093121;28;20459;-64
2023/04/28 00:09:04;;;;;;;8.10;7.70;;;19.50;52.40;;;;;;5110081;28;20477;-65
2023/04/28 00:11:31;;;;;;;7.93;7.73;;;19.50;52.40;;;;;;5113766;28;20484;-65
2023/04/28 00:13:58;;;;;;;7.90;7.70;;;19.50;52.50;;;;;;5113353;28;20497;-65
2023/04/28 00:16:26;;;;;;;8.40;8.10;;;19.50;52.50;;;;;;5112871;28;20544;-65
2023/04/28 00:18:53;;;;;;;7.10;7.00;;;19.50;52.60;;;;;;5097464;28;21014;-65
2023/04/28 00:21:20;;;;;;;7.30;7.10;;;19.50;52.60;;;;;;5092983;28;20474;-65
2023/04/28 00:23:47;;;;;;;7.57;7.37;;;19.50;52.60;;;;;;5094746;28;20528;-64
2023/04/28 00:26:14;;;;;;;8.60;8.30;;;19.40;52.50;;;;;;5093337;28;20910;-65
2023/04/28 00:28:40;;;;;;;7.50;7.30;;;19.40;52.50;;;;;;5092632;28;20478;-65
2023/04/28 00:31:12;;;;;;;7.90;7.70;;;19.40;52.60;;;;;;5092881;28;20525;-65
2023/04/28 00:33:40;;;;;;;7.77;7.57;;;19.40;52.60;;;;;;5092634;28;20435;-64
2023/04/28 00:36:08;;;;;;;8.47;8.10;;;19.40;52.60;;;;;;5094382;28;20555;-65
2023/04/28 00:38:35;;;;;;;7.63;7.43;;;19.40;52.60;;;;;;5112825;28;20536;-65
2023/04/28 00:41:02;;;;;;;8.10;7.90;;;19.40;52.70;;;;;;5113236;28;20438;-64
2023/04/28 00:43:29;;;;;;;7.73;7.53;;;19.40;52.70;;;;;;5112853;28;20465;-64
2023/04/28 00:45:56;;;;;;;7.50;7.30;;;19.40;52.70;;;;;;5110989;28;20548;-64
2023/04/28 00:48:23;;;;;;;7.60;7.33;;;19.40;52.70;;;;;;5112788;28;20529;-64
2023/04/28 00:50:52;;;;;;;7.67;7.57;;;19.30;52.70;;;;;;5112838;28;20444;-65
2023/04/28 00:53:19;;;;;;;8.00;7.80;;;19.40;52.80;;;;;;5112812;28;20919;-64
2023/04/28 00:55:47;;;;;;;7.53;7.40;;;19.30;52.70;;;;;;5095217;28;20879;-65
2023/04/28 00:58:14;;;;;;;7.60;7.50;;;19.30;52.70;;;;;;5092082;28;20980;-65
2023/04/28 01:00:41;;;;;;;8.50;8.20;;;19.30;52.80;;;;;;5092291;28;20450;-64
2023/04/28 01:03:09;;;;;;;8.20;8.00;;;19.30;52.70;;;;;;5100977;28;20499;-65
2023/04/28 01:05:37;;;;;;;7.80;7.60;;;19.30;52.80;;;;;;5112446;28;20516;-65
2023/04/28 01:08:06;;;;;;;7.40;7.30;;;19.30;52.80;;;;;;5112396;28;20469;-64
2023/04/28 01:10:32;;;;;;;8.57;8.17;;;19.30;52.80;;;;;;5110253;28;20445;-65
2023/04/28 01:12:59;;;;;;;7.00;6.90;;;19.30;52.80;;;;;;5092039;28;20521;-65
2023/04/28 01:15:27;;;;;;;7.87;7.67;;;19.30;52.80;;;;;;5091970;28;20526;-64
2023/04/28 01:17:55;;;;;;;7.70;7.50;;;19.30;52.80;;;;;;5091711;28;21031;-64
2023/04/28 01:20:22;;;;;;;7.17;6.97;;;19.30;52.90;;;;;;5091996;28;20481;-64
2023/04/28 01:22:49;;;;;;;7.97;7.77;;;19.30;52.90;;;;;;5071995;28;20475;-64
2023/04/28 01:25:17;;;;;;;8.70;8.30;;;19.30;52.90;;;;;;5071652;28;20486;-64
2023/04/28 01:27:44;;;;;;;7.90;7.70;;;19.30;52.90;;;;;;5070412;28;20499;-64
2023/04/28 01:30:11;;;;;;;7.20;7.10;;;19.30;52.90;;;;;;5091317;28;20478;-64
2023/04/28 01:32:38;;;;;;;7.63;7.43;;;19.30;52.90;;;;;;5112038;28;20564;-64
2023/04/28 01:35:06;;;;;;;7.80;7.40;;;19.30;52.90;;;;;;5112063;28;20480;-64
2023/04/28 01:37:32;;;;;;;7.93;7.73;;;19.30;52.90;;;;;;5111976;28;20591;-64
2023/04/28 01:39:59;;;;;;;8.20;8.00;;;19.30;52.90;;;;;;5096851;28;20479;-65
2023/04/28 01:42:28;;;;;;;7.97;7.77;;;19.30;53.00;;;;;;5091671;28;20470;-64
2023/04/28 01:44:54;;;;;;;7.73;7.53;;;19.30;53.00;;;;;;5091628;28;20442;-64
2023/04/28 01:47:21;;;;;;;7.77;7.57;;;19.20;52.90;;;;;;5091405;28;20506;-64
2023/04/28 01:49:49;;;;;;;7.67;7.47;;;19.30;53.00;;;;;;5104378;28;20872;-64
2023/04/28 01:52:18;;;;;;;8.17;7.97;;;19.20;53.00;;;;;;5112033;28;20543;-64
2023/04/28 01:54:45;;;;;;;7.73;7.53;;;19.20;53.00;;;;;;5111797;28;20508;-64
2023/04/28 01:57:12;;;;;;;7.73;7.53;;;19.20;53.00;;;;;;5111832;28;20552;-64
2023/04/28 01:59:40;;;;;;;8.30;7.90;;;19.20;53.00;;;;;;5099882;28;20477;-64
2023/04/28 02:02:07;;;;;;;7.73;7.53;;;19.20;53.00;;;;;;5098239;28;20521;-63
2023/04/28 02:04:34;;;;;;;7.77;7.57;;;19.20;53.10;;;;;;5111749;28;20540;-63
2023/04/28 02:07:01;;;;;;;7.80;7.60;;;19.20;53.10;;;;;;5111736;28;20500;-64
2023/04/28 02:09:28;;;;;;;8.23;8.03;;;19.20;53.10;;;;;;5109951;28;20545;-64
2023/04/28 02:11:54;;;;;;;7.67;7.47;;;19.20;53.10;;;;;;5111654;28;20903;-64
2023/04/28 02:14:22;;;;;;;7.63;7.43;;;19.20;53.10;;;;;;5111782;28;20516;-65
2023/04/28 02:16:50;;;;;;;7.50;7.40;;;19.20;53.10;;;;;;5110060;28;20480;-64
2023/04/28 02:19:17;;;;;;;7.40;7.20;;;19.20;53.10;;;;;;5091295;28;20882;-64
2023/04/28 02:21:44;;;;;;;7.80;7.60;;;19.20;53.10;;;;;;5091328;28;20521;-64
2023/04/28 02:24:11;;;;;;;7.70;7.50;;;19.20;53.10;;;;;;5091302;28;20485;-64
2023/04/28 02:26:38;;;;;;;8.20;8.00;;;19.20;53.20;;;;;;5091095;28;20472;-64
2023/04/28 02:29:05;;;;;;;8.73;8.50;;;19.20;53.10;;;;;;5111308;28;20532;-64
2023/04/28 02:31:32;;;;;;;7.50;7.30;;;19.20;53.10;;;;;;5111466;28;20502;-64
2023/04/28 02:34:00;;;;;;;7.27;7.07;;;19.20;53.20;;;;;;5111592;28;20567;-64
2023/04/28 02:36:27;;;;;;;7.70;7.50;;;19.20;53.20;;;;;;5111476;28;20477;-64
2023/04/28 02:38:54;;;;;;;7.60;7.40;;;19.10;53.10;;;;;;5093209;28;20453;-64
2023/04/28 02:41:21;;;;;;;8.33;8.03;;;19.20;53.30;;;;;;5094955;28;20445;-64
2023/04/28 02:43:48;;;;;;;7.97;7.67;;;19.20;53.30;;;;;;5094946;28;20464;-64
2023/04/28 02:46:15;;;;;;;8.10;7.87;;;19.20;53.30;;;;;;5094758;28;20501;-64
2023/04/28 02:48:42;;;;;;;7.40;7.20;;;19.10;53.20;;;;;;5110945;28;20548;-64
2023/04/28 02:51:10;;;;;;;8.20;8.00;;;19.20;53.30;;;;;;5115180;28;20872;-64
2023/04/28 02:53:37;;;;;;;7.90;7.70;;;19.10;53.30;;;;;;5114905;28;20580;-65
2023/04/28 02:56:05;;;;;;;7.70;7.60;;;19.10;53.20;;;;;;5115094;28;20552;-64
2023/04/28 02:58:32;;;;;;;8.10;7.80;;;19.20;53.30;;;;;;5102862;28;20528;-64
2023/04/28 03:00:58;;;;;;;7.40;7.20;;;19.20;53.30;;;;;;5101686;28;20525;-64
2023/04/28 03:03:25;;;;;;;8.10;7.90;;;19.10;53.30;;;;;;5115102;28;20481;-64
2023/04/28 03:05:52;;;;;;;7.83;7.63;;;19.10;53.20;;;;;;5114756;28;20501;-64
2023/04/28 03:08:21;;;;;;;7.57;7.47;;;19.10;53.30;;;;;;5101842;28;20534;-65
2023/04/28 03:10:48;;;;;;;8.00;7.80;;;19.20;53.40;;;;;;5094371;28;20487;-64
2023/04/28 03:13:15;;;;;;;7.80;7.60;;;19.20;53.40;;;;;;5094207;28;20518;-64
2023/04/28 03:15:41;;;;;;;7.90;7.70;;;19.10;53.40;;;;;;5094063;28;20507;-64
2023/04/28 03:18:08;;;;;;;7.80;7.50;;;19.10;53.40;;;;;;5104672;28;20525;-65
2023/04/28 03:20:35;;;;;;;7.77;7.47;;;19.20;53.40;;;;;;5114658;28;20524;-64
2023/04/28 03:23:02;;;;;;;7.40;7.20;;;19.10;53.40;;;;;;5114731;28;20477;-64
2023/04/28 03:25:30;;;;;;;7.10;6.93;;;19.10;53.40;;;;;;5111991;28;20441;-64
2023/04/28 03:27:57;;;;;;;7.77;7.57;;;19.10;53.40;;;;;;5093933;28;20478;-65
2023/04/28 03:30:24;;;;;;;7.80;7.60;;;19.20;53.50;;;;;;5094111;28;20533;-64
2023/04/28 03:32:51;;;;;;;8.00;7.80;;;19.10;53.40;;;;;;5093939;28;20572;-64
2023/04/28 03:35:18;;;;;;;7.80;7.60;;;19.10;53.40;;;;;;5094040;28;20533;-64
2023/04/28 03:37:44;;;;;;;7.60;7.40;;;19.10;53.40;;;;;;5113988;28;20493;-64
2023/04/28 03:40:12;;;;;;;8.20;7.90;;;19.10;53.40;;;;;;5114259;28;20481;-64
2023/04/28 03:42:40;;;;;;;7.33;7.13;;;19.10;53.40;;;;;;5114168;28;20441;-64
2023/04/28 03:45:08;;;;;;;7.53;7.40;;;19.10;53.40;;;;;;5114182;28;20868;-64
2023/04/28 03:47:35;;;;;;;7.67;7.37;;;19.10;53.40;;;;;;5112144;28;20557;-64
2023/04/28 03:50:02;;;;;;;7.70;7.60;;;19.10;53.40;;;;;;5113762;28;20445;-64
2023/04/28 03:52:29;;;;;;;7.97;7.77;;;19.10;53.40;;;;;;5113273;28;20442;-64
2023/04/28 03:54:56;;;;;;;7.00;6.90;;;19.10;53.50;;;;;;5114002;28;20449;-64
2023/04/28 03:57:23;;;;;;;7.73;7.50;;;19.10;53.50;;;;;;5095960;28;21067;-64
2023/04/28 03:59:51;;;;;;;7.53;7.33;;;19.10;53.50;;;;;;5093382;28;21005;-64
2023/04/28 04:02:18;;;;;;;8.40;8.20;;;19.10;53.50;;;;;;5093308;28;20442;-64
2023/04/28 04:04:45;;;;;;;8.40;8.20;;;19.10;53.60;;;;;;5093292;28;20466;-64
2023/04/28 04:07:13;;;;;;;8.03;7.73;;;19.10;53.60;;;;;;5108629;28;20548;-63
2023/04/28 04:09:40;;;;;;;8.50;8.13;;;19.10;53.60;;;;;;5093251;28;20478;-64
2023/04/28 04:12:07;;;;;;;8.10;7.90;;;19.10;53.70;;;;;;5093522;28;20446;-63
2023/04/28 04:14:34;;;;;;;8.33;8.13;;;19.10;53.70;;;;;;5093163;28;20561;-65
2023/04/28 04:17:02;;;;;;;8.87;8.67;;;19.10;53.70;;;;;;5106510;28;20495;-64
2023/04/28 04:19:29;;;;;;;8.43;8.13;;;19.10;53.70;;;;;;5113334;28;20529;-64
2023/04/28 04:21:56;;;;;;;8.67;8.47;;;19.10;53.70;;;;;;5113336;28;20516;-63
2023/04/28 04:24:23;;;;;;;8.40;8.20;;;19.00;53.60;;;;;;5113289;28;20557;-60
2023/04/28 04:26:50;;;;;;;8.93;8.60;;;19.00;54.20;;;;;;5101686;28;20548;-64
2023/04/28 04:29:17;;;;;;;8.47;8.27;;;19.00;54.60;;;;;;5092701;28;20534;-68
2023/04/28 04:31:44;;;;;;;8.10;7.90;;;19.00;54.90;;;;;;5092802;28;20482;-65
2023/04/28 04:34:12;;;;;;;8.23;8.00;;;19.00;55.00;;;;;;5095347;28;20473;-62
2023/04/28 04:36:39;;;;;;;8.40;8.20;;;19.00;55.10;;;;;;5111704;28;21002;-63
2023/04/28 04:39:06;;;;;;;8.70;8.50;;;19.00;55.30;;;;;;5095132;28;20620;-65
2023/04/28 04:41:33;;;;;;;9.13;8.93;;;19.00;55.50;;;;;;5112932;28;20451;-66
2023/04/28 04:44:00;;;;;;;10.30;10.00;;;19.00;55.90;;;;;;5112940;28;20533;-64
2023/04/28 04:46:27;;;;;;;10.60;10.20;;;19.00;55.30;;;;;;5112706;28;20469;-63
2023/04/28 04:48:54;;;;;;;9.80;9.60;;;19.10;56.10;;;;;;5110976;28;20477;-64
2023/04/28 04:51:22;;;;;;;10.70;10.40;;;19.20;56.60;;;;;;5112952;28;20517;-64
2023/04/28 04:53:49;;;;;;;10.47;10.17;;;19.20;56.40;;;;;;5112959;28;20577;-64
2023/04/28 04:56:16;;;;;;;10.47;10.07;;;19.30;55.90;;;;;;5112714;28;20549;-64
2023/04/28 04:58:44;;;;;;;9.70;9.40;;;19.40;55.90;;;;;;5110663;28;20484;-60
2023/04/28 05:01:11;;;;;;;10.30;10.00;;;19.40;55.90;;;;;;5093787;28;20444;-64
2023/04/28 05:03:38;;;;;;;10.73;10.50;;;19.50;56.20;;;;;;5092603;28;21037;-64
2023/04/28 05:06:04;;;;;;;10.47;10.17;;;19.50;55.90;;;;;;5092115;28;20573;-62
2023/04/28 05:08:33;;;;;;;10.73;10.43;;;19.50;55.70;;;;;;5104758;28;20529;-62
2023/04/28 05:11:00;;;;;;;10.37;10.07;;;19.60;55.70;;;;;;5112521;28;20536;-64
2023/04/28 05:13:26;;;;;;;10.80;10.50;;;19.60;55.50;;;;;;5095356;28;20510;-61
2023/04/28 05:15:53;;;;;;;10.60;10.30;;;19.60;55.50;;;;;;5092083;28;20900;-60
2023/04/28 05:18:20;;;;;;;10.27;9.97;;;19.70;55.50;;;;;;5102656;28;20481;-59
2023/04/28 05:20:47;;;;;;;10.63;10.33;;;19.70;55.50;;;;;;5112525;28;20525;-63
2023/04/28 05:23:14;;;;;;;10.23;10.03;;;19.70;55.40;;;;;;5112335;28;20477;-63
2023/04/28 05:25:42;;;;;;;10.20;10.00;;;19.80;55.60;;;;;;5112316;28;20445;-62
2023/04/28 05:28:10;;;;;;;10.13;9.83;;;19.80;55.30;;;;;;5110396;28;20445;-64
2023/04/28 05:30:37;;;;;;;9.60;9.40;;;19.80;55.20;;;;;;5112214;28;20853;-62
2023/04/28 05:33:04;;;;;;;10.03;9.73;;;19.80;55.00;;;;;;5112121;28;20498;-63
2023/04/28 05:35:31;;;;;;;9.57;9.37;;;19.90;55.50;;;;;;5111137;28;20852;-61
2023/04/28 05:37:58;;;;;;;10.33;10.03;;;19.90;55.50;;;;;;5091809;28;20809;-60
2023/04/28 05:40:25;;;;;;;9.70;9.50;;;19.90;55.40;;;;;;5091687;28;20450;-63
2023/04/28 05:42:53;;;;;;;10.13;9.73;;;19.90;55.80;;;;;;5091746;28;20527;-63
2023/04/28 05:45:20;;;;;;;9.80;9.60;;;19.90;55.40;;;;;;5091600;28;20525;-61
2023/04/28 05:47:47;;;;;;;10.00;9.70;;;19.90;55.30;;;;;;5092819;28;20474;-61
2023/04/28 05:50:14;;;;;;;10.00;9.80;;;19.90;55.60;;;;;;5091744;28;20872;-61
2023/04/28 05:52:41;;;;;;;10.27;9.97;;;19.90;55.20;;;;;;5091627;28;20869;-63
2023/04/28 05:55:08;;;;;;;9.10;8.37;;;19.90;55.20;;;;;;5105003;28;21074;-64
2023/04/28 05:57:35;;;;;;;8.60;8.30;;;19.90;55.10;;;;;;5111708;28;20549;-64
2023/04/28 06:00:04;;;;;;;9.03;8.83;;;19.90;54.90;;;;;;5098026;28;20967;-64
2023/04/28 06:02:30;;;;;;;8.93;8.63;;;19.80;54.80;;;;;;5091491;28;20457;-62
2023/04/28 06:04:57;;;;;;;8.47;8.27;;;19.80;54.80;;;;;;5090063;28;20533;-64
2023/04/28 06:07:24;;;;;;;8.63;8.43;;;19.80;54.70;;;;;;5091353;28;20550;-63
2023/04/28 06:09:51;;;;;;;9.00;8.60;;;19.80;54.70;;;;;;5091435;28;20534;-64
2023/04/28 06:12:18;;;;;;;8.83;8.63;;;19.80;54.70;;;;;;5091456;28;20526;-64
2023/04/28 06:14:45;;;;;;;9.07;8.87;;;19.70;54.60;;;;;;5092977;28;20565;-61
2023/04/28 06:17:13;;;;;;;8.50;8.30;;;19.70;54.60;;;;;;5095328;28;20544;-64
2023/04/28 06:19:40;;;;;;;8.90;8.70;;;19.70;54.60;;;;;;5095143;28;20529;-63
2023/04/28 06:22:07;;;;;;;9.60;9.30;;;19.70;54.60;;;;;;5095345;28;20533;-63
2023/04/28 06:24:34;;;;;;;9.43;9.23;;;19.60;54.50;;;;;;5095495;28;20529;-65
2023/04/28 06:27:01;;;;;;;9.83;9.43;;;19.60;54.50;;;;;;5095246;28;20494;-64
2023/04/28 06:29:28;;;;;;;9.70;9.40;;;19.60;54.50;;;;;;5095071;28;20442;-64
2023/04/28 06:31:56;;;;;;;9.40;9.20;;;19.60;54.60;;;;;;5095518;28;20481;-64
2023/04/28 06:34:27;;;;;;;9.80;9.50;;;19.50;54.40;;;;;;5094912;28;20482;-65
2023/04/28 06:36:54;;;;;;;8.63;8.43;;;19.50;54.50;;;;;;5094900;28;20466;-64
2023/04/28 06:39:21;;;;;;;8.60;8.40;;;19.50;54.50;;;;;;5094747;28;20446;-61
2023/04/28 06:41:48;;;;;;;9.30;9.00;;;19.50;54.50;;;;;;5094833;28;20477;-64
2023/04/28 06:44:15;;;;;;;9.07;8.87;;;19.50;54.50;;;;;;5094891;28;20525;-65
2023/04/28 06:46:42;;;;;;;9.20;9.00;;;19.40;54.40;;;;;;5094700;28;20557;-65
2023/04/28 06:49:09;;;;;;;8.93;8.63;;;19.40;54.50;;;;;;5094838;28;20532;-64
2023/04/28 06:51:37;;;;;;;8.77;8.50;;;19.40;54.50;;;;;;5094773;28;20529;-64
2023/04/28 06:54:04;;;;;;;9.10;8.90;;;19.40;54.50;;;;;;5094840;28;20565;-65
2023/04/28 06:56:31;;;;;;;9.33;9.03;;;19.40;54.50;;;;;;5094690;28;20497;-65
2023/04/28 06:58:58;;;;;;;8.70;8.50;;;19.40;54.50;;;;;;5094396;28;20485;-64
2023/04/28 07:01:25;;;;;;;8.50;8.30;;;19.40;54.50;;;;;;5094532;28;20452;-64
2023/04/28 07:03:52;;;;;;;9.40;9.10;;;19.40;54.50;;;;;;5094476;28;20529;-64
2023/04/28 07:06:19;;;;;;;9.10;8.90;;;19.40;54.50;;;;;;5094393;28;20544;-64
2023/04/28 07:08:47;;;;;;;8.80;8.60;;;19.40;54.50;;;;;;5094537;28;20472;-63
2023/04/28 07:11:15;;;;;;;8.73;8.53;;;19.40;54.50;;;;;;5094368;28;20541;-64
2023/04/28 07:13:42;;;;;;;8.93;8.73;;;19.30;54.40;;;;;;5094213;28;20489;-64
2023/04/28 07:16:10;;;;;;;8.50;8.30;;;19.30;54.40;;;;;;5094401;28;20660;-65
2023/04/28 07:18:37;;;;;;;8.40;8.20;;;19.30;54.40;;;;;;5094027;28;20546;-64
2023/04/28 07:21:04;;;;;;;8.93;8.73;;;19.30;54.40;;;;;;5094542;28;20469;-64
2023/04/28 07:23:31;;;;;;;9.73;9.33;;;19.30;54.40;;;;;;5094314;28;20497;-65
2023/04/28 07:25:59;;;;;;;9.00;8.77;;;19.30;54.40;;;;;;5094017;28;20548;-65
2023/04/28 07:28:26;;;;;;;9.23;8.73;;;19.30;54.40;;;;;;5094268;28;21013;-64
2023/04/28 07:30:53;;;;;;;9.33;9.13;;;19.30;54.40;;;;;;5094499;28;20945;-65
2023/04/28 07:33:20;;;;;;;8.73;8.53;;;19.30;54.30;;;;;;5093915;28;20525;-64
2023/04/28 07:35:48;;;;;;;9.20;9.00;;;19.30;54.30;;;;;;5093902;28;20622;-64
2023/04/28 07:38:15;;;;;;;8.63;8.43;;;19.30;54.30;;;;;;5093619;28;20457;-64
2023/04/28 07:40:43;;;;;;;8.70;8.50;;;19.30;54.30;;;;;;5093790;28;20451;-64
2023/04/28 07:43:11;;;;;;;8.70;8.50;;;19.30;54.30;;;;;;5093795;28;20457;-65
2023/04/28 07:45:38;;;;;;;9.37;9.10;;;19.30;54.30;;;;;;5093508;28;20521;-64
2023/04/28 07:48:06;;;;;;;9.87;9.57;;;19.30;54.30;;;;;;5093595;28;20488;-64
2023/04/28 07:50:33;;;;;;;9.60;9.30;;;19.30;54.30;;;;;;5093651;28;20500;-64
2023/04/28 07:53:00;;;;;;;8.90;8.70;;;19.20;54.20;;;;;;5093614;28;20537;-64
2023/04/28 07:55:27;;;;;;;8.87;8.67;;;19.20;54.20;;;;;;5093378;28;20569;-64
2023/04/28 07:57:54;;;;;;;8.87;8.33;;;19.20;54.20;;;;;;5093307;28;21016;-64
2023/04/28 08:00:23;;;;;;;8.70;8.50;;;19.30;54.30;;;;;;5093357;28;20446;-64
2023/04/28 08:02:49;;;;;;;8.80;8.60;;;19.20;54.20;;;;;;5093459;28;20530;-64
2023/04/28 08:05:17;;;;;;;9.00;8.80;;;19.20;54.20;;;;;;5093202;28;20474;-65
2023/04/28 08:07:44;;;;;;;9.10;8.90;;;19.20;54.20;;;;;;5093175;28;20549;-65
2023/04/28 08:10:11;;;;;;;9.30;9.10;;;19.20;54.20;;;;;;5093278;28;20469;-65
2023/04/28 08:12:39;;;;;;;8.30;8.10;;;19.20;54.20;;;;;;5093219;28;20438;-64
2023/04/28 08:15:08;;;;;;;9.10;8.80;;;19.20;54.20;;;;;;5092959;28;20481;-65
2023/04/28 08:17:36;;;;;;;8.80;8.60;;;19.20;54.20;;;;;;5092882;28;20513;-64
2023/04/28 08:20:05;;;;;;;8.80;8.60;;;19.20;54.20;;;;;;5093029;28;20499;-64
2023/04/28 08:22:32;;;;;;;8.50;8.30;;;19.20;54.20;;;;;;5093298;28;20452;-64
2023/04/28 08:24:59;;;;;;;9.03;8.83;;;19.20;54.20;;;;;;5092810;28;20471;-64
2023/04/28 08:27:26;;;;;;;8.70;8.40;;;19.20;54.20;;;;;;5092703;28;20459;-64
2023/04/28 08:29:53;;;;;;;9.00;8.80;;;19.20;54.20;;;;;;5093137;28;20478;-65
2023/04/28 08:32:20;;;;;;;8.40;8.20;;;19.20;54.10;;;;;;5092715;28;20477;-62
2023/04/28 08:34:48;;;;;;;8.80;8.60;;;19.20;54.10;;;;;;5092750;28;20561;-65
2023/04/28 08:37:15;;;;;;;8.73;8.53;;;19.20;54.10;;;;;;5092166;28;20466;-65
2023/04/28 08:39:42;;;;;;;9.00;8.80;;;19.20;54.10;;;;;;5092566;28;20442;-64
2023/04/28 08:42:09;;;;;;;8.20;8.10;;;19.20;54.10;;;;;;5092672;28;20865;-65
2023/04/28 08:44:38;;;;;;;8.90;8.60;;;19.20;54.10;;;;;;5092863;28;20481;-63
2023/04/28 08:47:11;;;;;;;9.23;9.03;;;19.20;54.10;;;;;;5092224;28;20470;-65
2023/04/28 08:49:39;;;;;;;9.00;8.80;;;19.20;54.10;;;;;;5092424;28;20481;-63
2023/04/28 08:52:11;;;;;;;8.37;8.17;;;19.20;54.10;;;;;;5092710;28;20525;-63
2023/04/28 08:54:40;;;;;;;8.60;8.40;;;19.20;54.10;;;;;;5092277;28;20889;-64
2023/04/28 08:57:09;;;;;;;8.50;8.30;;;19.20;54.10;;;;;;5092187;28;20459;-63
2023/04/28 08:59:39;;;;;;;7.63;7.43;;;19.20;54.10;;;;;;5092361;28;21000;-64
2023/04/28 09:02:07;;;;;;;8.27;8.07;;;19.20;54.10;;;;;;5092195;28;20512;-64
2023/04/28 09:04:34;;;;;;;7.90;7.63;;;19.20;54.10;;;;;;5092276;28;20481;-64
2023/04/28 09:07:00;;;;;;;8.43;8.23;;;19.20;54.10;;;;;;5092197;28;20542;-64
2023/04/28 09:09:30;;;;;;;7.80;7.70;;;19.20;54.10;;;;;;5091981;28;20972;-64
2023/04/28 09:11:59;;;;;;;8.27;8.07;;;19.20;54.10;;;;;;5092064;28;20435;-63
2023/04/28 09:14:27;;;;;;;8.70;8.50;;;19.20;54.10;;;;;;5092264;28;20482;-64
2023/04/28 09:16:54;;;;;;;8.27;8.10;;;19.20;54.00;;;;;;5092021;28;20494;-64
2023/04/28 09:19:21;;;;;;;8.63;8.43;;;19.20;54.10;;;;;;5091814;28;21033;-63
2023/04/28 09:21:53;;;;;;;9.20;8.97;;;19.20;54.10;;;;;;5092161;28;20485;-63
2023/04/28 09:24:31;;;;;;;8.00;7.90;;;19.20;54.00;;;;;;5091986;28;20945;-64
2023/04/28 09:26:58;;;;;;;8.77;8.53;;;19.20;54.00;;;;;;5092192;28;20505;-66
2023/04/28 09:29:25;;;;;;;8.83;8.63;;;19.20;54.00;;;;;;5091716;28;20529;-65
2023/04/28 09:31:53;;;;;;;8.10;7.90;;;19.20;54.00;;;;;;5091795;28;20485;-66
2023/04/28 09:34:20;;;;;;;8.73;8.53;;;19.20;54.00;;;;;;5091651;28;20446;-65
2023/04/28 09:36:47;;;;;;;8.70;8.50;;;19.20;54.00;;;;;;5091649;28;20832;-65
2023/04/28 09:39:14;;;;;;;9.27;8.97;;;19.10;54.00;;;;;;5091571;28;20489;-65
2023/04/28 09:41:44;;;;;;;8.70;8.50;;;19.20;54.00;;;;;;5092517;28;20813;-65
2023/04/28 09:44:12;;;;;;;9.00;8.80;;;19.20;54.00;;;;;;5091623;28;20443;-64
2023/04/28 09:46:40;;;;;;;8.37;8.17;;;19.20;54.00;;;;;;5091403;28;20997;-64
2023/04/28 09:49:07;;;;;;;9.07;8.87;;;19.20;54.00;;;;;;5090670;28;20820;-65
2023/04/28 09:51:35;;;;;;;8.90;8.70;;;19.20;54.00;;;;;;5091496;28;20453;-65
2023/04/28 09:54:03;;;;;;;9.20;8.93;;;19.20;54.00;;;;;;5091563;28;20542;-64
2023/04/28 09:56:31;;;;;;;8.70;8.50;;;19.20;54.00;;;;;;5091609;28;20490;-64
2023/04/28 09:59:01;;;;;;;8.30;8.20;;;19.20;54.00;;;;;;5092140;28;20466;-63
2023/04/28 10:01:32;;;;;;;8.80;8.60;;;19.20;54.00;;;;;;5092094;28;20812;-64
2023/04/28 10:04:00;;;;;;;8.33;8.13;;;19.20;54.00;;;;;;5091871;28;20469;-65
2023/04/28 10:06:28;;;;;;;8.30;8.10;;;19.20;54.00;;;;;;5091397;28;20552;-65
2023/04/28 10:08:57;;;;;;;8.90;8.70;;;19.20;54.00;;;;;;5091257;28;20443;-65
2023/04/28 10:11:25;;;;;;;8.00;7.80;;;19.20;54.00;;;;;;5091639;28;20793;-64
2023/04/28 10:13:53;;;;;;;8.37;8.17;;;19.20;54.00;;;;;;5091531;28;20446;-64
2023/04/28 10:16:23;;;;;;;8.60;8.30;;;19.20;54.00;;;;;;5091276;28;20520;-64
2023/04/28 10:18:51;;;;;;;8.63;8.43;;;19.20;54.00;;;;;;5091532;28;20442;-64
2023/04/28 10:21:20;;;;;;;8.77;8.57;;;19.20;54.00;;;;;;5091319;28;20450;-64
2023/04/28 10:24:08;;;;;;;8.30;8.10;;;19.20;54.00;;;;;;5091289;28;20862;-64
2023/04/28 10:27:13;;;;;;;8.30;8.10;;;19.20;54.00;;;;;;5091240;28;20545;-64
2023/04/28 10:29:40;;;;;;;8.30;8.10;;;19.20;54.00;;;;;;5091024;28;20945;-64
2023/04/28 10:32:22;;;;;;;7.80;7.70;;;19.20;54.00;;;;;;5091152;28;20525;-64
2023/04/28 10:34:49;;;;;;;7.87;7.77;;;19.10;53.90;;;;;;5091091;28;21001;-63
2023/04/28 10:37:17;;;;;;;8.30;8.17;;;19.20;54.00;;;;;;5091071;28;20466;-65
2023/04/28 10:40:21;;;;;;;8.10;7.90;;;19.10;53.90;;;;;;5090983;28;20541;-64
2023/04/28 10:42:53;;;;;;;8.50;8.30;;;19.10;53.90;;;;;;5091462;28;20446;-64
2023/04/28 10:45:59;;;;;;;7.93;7.83;;;19.20;54.00;;;;;;5090987;28;20519;-63
2023/04/28 10:48:56;;;;;;;8.13;7.93;;;19.20;54.00;;;;;;5091167;28;20507;-64
2023/04/28 10:51:30;;;;;;;8.20;8.00;;;19.20;54.00;;;;;;5091025;28;20445;-64
2023/04/28 10:54:18;;;;;;;8.00;7.90;;;19.10;53.90;;;;;;5090954;28;20442;-64
2023/04/28 10:57:21;;;;;;;8.17;8.07;;;19.10;53.90;;;;;;5090881;28;20992;-65
2023/04/28 10:59:50;;;;;;;8.30;8.10;;;19.20;54.00;;;;;;5091143;28;20986;-63
2023/04/28 11:02:41;;;;;;;8.70;8.50;;;19.20;54.00;;;;;;5094650;28;20446;-64
2023/04/28 11:05:17;;;;;;;8.27;8.07;;;19.20;54.00;;;;;;5079307;28;20446;-63
2023/04/28 11:08:33;;;;;;;8.00;7.80;;;19.20;54.00;;;;;;5094230;28;20531;-63
2023/04/28 11:11:23;;;;;;;8.70;8.50;;;19.10;53.90;;;;;;5094514;28;20438;-63
2023/04/28 11:13:51;;;;;;;8.30;8.10;;;19.20;54.00;;;;;;5094599;28;20468;-64
2023/04/28 11:16:20;;;;;;;8.23;8.03;;;19.20;54.00;;;;;;5094161;28;20565;-64
2023/04/28 11:19:02;;;;;;;7.57;7.47;;;19.20;54.00;;;;;;5094058;28;20906;-65
2023/04/28 11:21:31;;;;;;;8.20;8.00;;;19.20;54.00;;;;;;5094347;28;20736;-64
2023/04/28 11:23:58;;;;;;;8.50;8.30;;;19.10;54.00;;;;;;5094098;28;20439;-64
2023/04/28 11:26:25;;;;;;;8.20;8.00;;;19.20;54.00;;;;;;5094124;28;20469;-65
2023/04/28 11:28:54;;;;;;;8.10;7.90;;;19.20;54.00;;;;;;5093923;28;20497;-64
2023/04/28 11:31:22;;;;;;;7.70;7.60;;;19.20;54.00;;;;;;5093892;28;20960;-64
2023/04/28 11:33:57;;;;;;;8.30;8.10;;;19.20;54.00;;;;;;5093966;28;20933;-65
2023/04/28 11:36:25;;;;;;;7.93;7.83;;;19.20;54.00;;;;;;5093906;28;20525;-65
2023/04/28 11:38:53;;;;;;;9.00;8.80;;;19.20;54.00;;;;;;5093809;28;20512;-65
2023/04/28 11:41:20;;;;;;;9.00;8.80;;;19.20;54.00;;;;;;5093866;28;20529;-62
2023/04/28 11:43:47;;;;;;;8.70;8.50;;;19.20;54.00;;;;;;5093893;28;21013;-64
2023/04/28 11:46:17;;;;;;;9.07;8.87;;;19.20;54.00;;;;;;5134093;22;20557;-63
2023/04/28 11:48:44;;;;;;;8.93;8.73;;;19.20;54.00;;;;;;5073874;28;20922;-63
2023/04/28 11:51:31;;;;;;;8.80;8.60;;;19.20;54.00;;;;;;5073420;28;20450;-63
2023/04/28 11:53:59;;;;;;;9.43;9.23;;;19.20;54.00;;;;;;5073268;28;20470;-63
2023/04/28 11:56:26;;;;;;;8.97;8.77;;;19.20;54.00;;;;;;5073006;28;20566;-61
2023/04/28 11:59:07;;;;;;;9.07;8.87;;;19.20;54.00;;;;;;5073052;28;20579;-63
2023/04/28 12:01:37;;;;;;;8.87;8.67;;;19.20;54.00;;;;;;5073135;28;20470;-63
2023/04/28 12:04:04;;;;;;;8.50;8.30;;;19.20;54.00;;;;;;5073027;28;20750;-63
2023/04/28 12:06:31;;;;;;;8.70;8.50;;;19.20;54.00;;;;;;5072869;28;20467;-63
2023/04/28 12:09:03;;;;;;;8.03;7.93;;;19.20;54.00;;;;;;5072976;28;20534;-62
2023/04/28 12:11:30;;;;;;;8.60;8.40;;;19.20;54.00;;;;;;5072249;28;20451;-63
2023/04/28 12:14:05;;;;;;;7.97;7.87;;;19.30;54.00;;;;;;5072647;28;20816;-61
2023/04/28 12:16:43;;;;;;;8.20;8.10;;;19.30;54.00;;;;;;5072691;28;20482;-62
2023/04/28 12:19:13;;;;;;;8.23;8.10;;;19.30;54.00;;;;;;5072585;28;20447;-62
2023/04/28 12:21:41;;;;;;;8.40;8.20;;;19.30;54.00;;;;;;5072728;28;20470;-61
2023/04/28 12:24:16;;;;;;;8.50;8.30;;;19.30;54.00;;;;;;5072614;28;20522;-63
2023/04/28 12:26:43;;;;;;;8.57;8.37;;;19.20;53.90;;;;;;5072525;28;20510;-61
2023/04/28 12:29:30;;;;;;;8.37;8.17;;;19.30;54.00;;;;;;5072502;28;20446;-64
2023/04/28 12:31:57;;;;;;;8.90;8.70;;;19.30;54.00;;;;;;5071845;28;20455;-65
2023/04/28 12:34:24;;;;;;;10.23;9.93;;;19.30;54.00;;;;;;5071831;28;20539;-66
2023/04/28 12:36:51;;;;;;;10.27;10.07;;;19.30;54.90;;;;;;5072324;28;20485;-65
2023/04/28 12:39:21;;;;;;;10.13;9.87;;;19.40;55.50;;;;;;5072292;28;20481;-65
2023/04/28 12:41:48;;;;;;;10.33;10.03;;;19.40;55.50;;;;;;5072531;28;20962;-62
2023/04/28 12:44:15;;;;;;;10.10;9.80;;;19.50;55.60;;;;;;5091020;28;20469;-64
2023/04/28 12:46:42;;;;;;;9.83;9.63;;;19.50;55.30;;;;;;5078622;28;20474;-62
2023/04/28 12:49:09;;;;;;;10.30;9.90;;;19.60;55.50;;;;;;5072320;28;20995;-62
2023/04/28 12:51:38;;;;;;;10.00;9.70;;;19.60;55.60;;;;;;5071943;28;20481;-63
2023/04/28 12:54:05;;;;;;;10.03;9.83;;;19.70;55.60;;;;;;5088642;28;20212;-67